sensor_id;sensor_type;location;lat;lon;timestamp;pressure;altitude;pressure_sealevel;temperature;humidity
56142;BME280;42018;48.588;10.836;2022-11-06T00:02:11;97304.72;;;5.49;77.54
56142;BME280;42018;48.588;10.836;2022-11-06T00:04:56;97303.44;;;5.59;77.48
56142;BME280;42018;48.588;10.836;2022-11-06T00:08:02;97299.69;;;5.85;77.47
56142;BME280;42018;48.588;10.836;2022-11-06T00:10:47;97303.25;;;5.90;76.45
56142;BME280;42018;48.588;10.836;2022-11-06T00:13:33;97302.44;;;5.90;76.77
56142;BME280;42018;48.588;10.836;2022-11-06T00:16:18;97304.88;;;5.91;76.31
56142;BME280;42018;48.588;10.836;2022-11-06T00:19:04;97307.41;;;5.80;76.58
56142;BME280;42018;48.588;10.836;2022-11-06T00:21:50;97292.59;;;6.04;76.02
56142;BME280;42018;48.588;10.836;2022-11-06T00:24:35;97291.56;;;5.86;75.24
56142;BME280;42018;48.588;10.836;2022-11-06T00:27:20;97295.44;;;5.65;76.62
56142;BME280;42018;48.588;10.836;2022-11-06T00:30:07;97288.88;;;5.93;77.94
56142;BME280;42018;48.588;10.836;2022-11-06T00:32:53;97290.72;;;5.92;76.55
56142;BME280;42018;48.588;10.836;2022-11-06T00:35:39;97290.28;;;5.77;75.75
56142;BME280;42018;48.588;10.836;2022-11-06T00:38:24;97289.84;;;5.80;77.94
56142;BME280;42018;48.588;10.836;2022-11-06T00:41:12;97300.84;;;5.89;78.32
56142;BME280;42018;48.588;10.836;2022-11-06T00:44:00;97295.47;;;5.84;77.71
56142;BME280;42018;48.588;10.836;2022-11-06T00:46:45;97292.09;;;5.76;76.13
56142;BME280;42018;48.588;10.836;2022-11-06T00:49:31;97294.66;;;5.65;75.93
56142;BME280;42018;48.588;10.836;2022-11-06T00:52:16;97301.97;;;5.44;77.00
56142;BME280;42018;48.588;10.836;2022-11-06T00:55:01;97294.88;;;5.26;77.54
56142;BME280;42018;48.588;10.836;2022-11-06T00:57:47;97298.19;;;5.15;78.30
56142;BME280;42018;48.588;10.836;2022-11-06T01:00:32;97300.44;;;5.12;79.30
56142;BME280;42018;48.588;10.836;2022-11-06T01:03:17;97294.44;;;5.48;78.28
56142;BME280;42018;48.588;10.836;2022-11-06T01:06:12;97291.28;;;5.58;76.87
56142;BME280;42018;48.588;10.836;2022-11-06T01:08:58;97296.41;;;5.52;74.97
56142;BME280;42018;48.588;10.836;2022-11-06T01:11:48;97296.34;;;5.16;75.95
56142;BME280;42018;48.588;10.836;2022-11-06T01:14:35;97294.13;;;4.94;78.51
56142;BME280;42018;48.588;10.836;2022-11-06T01:17:20;97295.53;;;4.72;78.50
56142;BME280;42018;48.588;10.836;2022-11-06T01:20:06;97303.50;;;4.84;80.28
56142;BME280;42018;48.588;10.836;2022-11-06T01:22:51;97299.38;;;4.94;79.39
56142;BME280;42018;48.588;10.836;2022-11-06T01:25:37;97286.38;;;5.06;78.04
56142;BME280;42018;48.588;10.836;2022-11-06T01:28:22;97289.38;;;5.10;77.74
56142;BME280;42018;48.588;10.836;2022-11-06T01:31:16;97290.84;;;5.24;77.29
56142;BME280;42018;48.588;10.836;2022-11-06T01:34:03;97291.94;;;5.16;77.14
56142;BME280;42018;48.588;10.836;2022-11-06T01:36:49;97281.91;;;5.07;75.82
56142;BME280;42018;48.588;10.836;2022-11-06T01:39:34;97283.47;;;5.14;77.07
56142;BME280;42018;48.588;10.836;2022-11-06T01:42:19;97290.97;;;4.86;76.01
56142;BME280;42018;48.588;10.836;2022-11-06T01:45:20;97276.09;;;4.79;77.31
56142;BME280;42018;48.588;10.836;2022-11-06T01:48:07;97271.63;;;5.05;77.47
56142;BME280;42018;48.588;10.836;2022-11-06T01:50:55;97264.94;;;5.09;76.51
56142;BME280;42018;48.588;10.836;2022-11-06T01:53:42;97261.81;;;4.94;76.29
56142;BME280;42018;48.588;10.836;2022-11-06T01:56:27;97271.44;;;5.25;77.29
56142;BME280;42018;48.588;10.836;2022-11-06T01:59:15;97269.91;;;5.36;75.16
56142;BME280;42018;48.588;10.836;2022-11-06T02:02:01;97264.69;;;5.11;74.05
56142;BME280;42018;48.588;10.836;2022-11-06T02:04:47;97265.47;;;4.93;76.17
56142;BME280;42018;48.588;10.836;2022-11-06T02:07:33;97268.63;;;5.01;76.36
56142;BME280;42018;48.588;10.836;2022-11-06T02:10:19;97263.16;;;5.03;74.66
56142;BME280;42018;48.588;10.836;2022-11-06T02:19:22;97266.09;;;4.70;74.84
56142;BME280;42018;48.588;10.836;2022-11-06T02:22:47;97265.75;;;4.60;74.93
56142;BME280;42018;48.588;10.836;2022-11-06T02:28:36;97262.44;;;4.14;75.59
56142;BME280;42018;48.588;10.836;2022-11-06T02:31:25;97252.31;;;4.18;75.23
56142;BME280;42018;48.588;10.836;2022-11-06T02:34:15;97248.94;;;4.11;76.09
56142;BME280;42018;48.588;10.836;2022-11-06T02:37:10;97256.00;;;4.10;76.21
56142;BME280;42018;48.588;10.836;2022-11-06T02:39:59;97259.63;;;4.09;76.42
56142;BME280;42018;48.588;10.836;2022-11-06T02:42:49;97266.03;;;4.20;76.30
56142;BME280;42018;48.588;10.836;2022-11-06T02:46:01;97264.50;;;4.05;76.47
56142;BME280;42018;48.588;10.836;2022-11-06T02:48:55;97264.69;;;4.11;77.40
56142;BME280;42018;48.588;10.836;2022-11-06T02:51:45;97260.72;;;4.26;77.96
56142;BME280;42018;48.588;10.836;2022-11-06T02:54:34;97249.97;;;4.41;76.34
56142;BME280;42018;48.588;10.836;2022-11-06T02:57:24;97253.06;;;4.56;76.45
56142;BME280;42018;48.588;10.836;2022-11-06T03:00:13;97251.91;;;4.52;76.29
56142;BME280;42018;48.588;10.836;2022-11-06T03:03:03;97259.13;;;4.57;75.90
56142;BME280;42018;48.588;10.836;2022-11-06T03:11:35;97253.13;;;4.50;76.79
56142;BME280;42018;48.588;10.836;2022-11-06T03:14:29;97243.50;;;4.62;76.09
56142;BME280;42018;48.588;10.836;2022-11-06T03:17:27;97251.19;;;4.64;75.46
56142;BME280;42018;48.588;10.836;2022-11-06T03:26:03;97244.53;;;4.86;74.63
56142;BME280;42018;48.588;10.836;2022-11-06T03:28:57;97234.09;;;4.98;76.02
56142;BME280;42018;48.588;10.836;2022-11-06T03:31:52;97236.53;;;4.99;74.59
56142;BME280;42018;48.588;10.836;2022-11-06T03:34:55;97234.38;;;4.71;76.90
56142;BME280;42018;48.588;10.836;2022-11-06T03:37:48;97229.31;;;4.95;76.36
56142;BME280;42018;48.588;10.836;2022-11-06T03:40:39;97230.31;;;4.94;74.54
56142;BME280;42018;48.588;10.836;2022-11-06T03:43:31;97236.25;;;4.64;74.00
56142;BME280;42018;48.588;10.836;2022-11-06T03:46:21;97233.03;;;4.62;73.66
56142;BME280;42018;48.588;10.836;2022-11-06T03:49:13;97226.78;;;4.63;75.68
56142;BME280;42018;48.588;10.836;2022-11-06T03:52:05;97222.69;;;4.67;74.44
56142;BME280;42018;48.588;10.836;2022-11-06T03:55:02;97217.50;;;4.61;74.55
56142;BME280;42018;48.588;10.836;2022-11-06T03:57:53;97217.94;;;4.57;74.78
56142;BME280;42018;48.588;10.836;2022-11-06T04:00:41;97219.38;;;4.53;75.04
56142;BME280;42018;48.588;10.836;2022-11-06T04:03:31;97212.78;;;4.69;75.83
56142;BME280;42018;48.588;10.836;2022-11-06T04:06:31;97215.03;;;4.66;74.71
56142;BME280;42018;48.588;10.836;2022-11-06T04:09:20;97217.53;;;4.29;74.86
56142;BME280;42018;48.588;10.836;2022-11-06T04:12:28;97227.75;;;4.12;76.18
56142;BME280;42018;48.588;10.836;2022-11-06T04:15:48;97218.91;;;4.06;76.85
56142;BME280;42018;48.588;10.836;2022-11-06T04:18:35;97212.50;;;4.02;76.69
56142;BME280;42018;48.588;10.836;2022-11-06T04:27:36;97215.25;;;3.76;78.99
56142;BME280;42018;48.588;10.836;2022-11-06T04:30:22;97212.31;;;3.97;77.50
56142;BME280;42018;48.588;10.836;2022-11-06T04:42:18;97202.53;;;3.41;79.77
56142;BME280;42018;48.588;10.836;2022-11-06T04:45:13;97199.47;;;2.86;82.21
56142;BME280;42018;48.588;10.836;2022-11-06T04:48:02;97201.31;;;2.85;83.40
56142;BME280;42018;48.588;10.836;2022-11-06T04:50:52;97182.31;;;3.10;81.81
56142;BME280;42018;48.588;10.836;2022-11-06T04:53:39;97185.91;;;3.16;80.75
56142;BME280;42018;48.588;10.836;2022-11-06T04:56:30;97193.28;;;3.39;81.28
56142;BME280;42018;48.588;10.836;2022-11-06T04:59:16;97171.34;;;3.71;81.15
56142;BME280;42018;48.588;10.836;2022-11-06T05:02:03;97181.41;;;3.74;78.51
56142;BME280;42018;48.588;10.836;2022-11-06T05:04:48;97184.44;;;3.71;78.12
56142;BME280;42018;48.588;10.836;2022-11-06T05:07:34;97169.31;;;3.35;81.74
56142;BME280;42018;48.588;10.836;2022-11-06T05:10:19;97174.81;;;3.20;82.39
56142;BME280;42018;48.588;10.836;2022-11-06T05:13:04;97166.88;;;3.40;81.14
56142;BME280;42018;48.588;10.836;2022-11-06T05:15:54;97162.59;;;3.52;80.92
56142;BME280;42018;48.588;10.836;2022-11-06T05:18:40;97171.28;;;3.46;80.58
56142;BME280;42018;48.588;10.836;2022-11-06T05:21:25;97175.22;;;3.62;81.23
56142;BME280;42018;48.588;10.836;2022-11-06T05:24:29;97156.97;;;3.49;80.60
56142;BME280;42018;48.588;10.836;2022-11-06T05:27:14;97157.16;;;3.47;82.04
56142;BME280;42018;48.588;10.836;2022-11-06T05:30:00;97140.72;;;3.97;81.01
56142;BME280;42018;48.588;10.836;2022-11-06T05:32:45;97134.66;;;4.03;80.07
56142;BME280;42018;48.588;10.836;2022-11-06T05:35:31;97121.31;;;4.04;79.69
56142;BME280;42018;48.588;10.836;2022-11-06T05:38:16;97125.09;;;4.08;79.77
56142;BME280;42018;48.588;10.836;2022-11-06T05:41:02;97130.44;;;4.27;78.97
56142;BME280;42018;48.588;10.836;2022-11-06T05:43:47;97128.09;;;4.37;76.74
56142;BME280;42018;48.588;10.836;2022-11-06T05:46:33;97125.19;;;4.27;77.84
56142;BME280;42018;48.588;10.836;2022-11-06T05:49:18;97127.50;;;4.35;77.99
56142;BME280;42018;48.588;10.836;2022-11-06T05:52:03;97119.09;;;4.26;77.94
56142;BME280;42018;48.588;10.836;2022-11-06T05:54:49;97124.53;;;4.06;79.24
56142;BME280;42018;48.588;10.836;2022-11-06T05:57:34;97131.00;;;4.29;79.31
56142;BME280;42018;48.588;10.836;2022-11-06T06:00:19;97121.91;;;4.31;78.41
56142;BME280;42018;48.588;10.836;2022-11-06T06:03:05;97110.25;;;4.27;77.88
56142;BME280;42018;48.588;10.836;2022-11-06T06:05:50;97109.25;;;4.22;nan
56142;BME280;42018;48.588;10.836;2022-11-06T06:08:36;97110.25;;;4.46;78.22
56142;BME280;42018;48.588;10.836;2022-11-06T06:11:21;97117.53;;;4.44;78.45
56142;BME280;42018;48.588;10.836;2022-11-06T06:14:06;97100.91;;;4.31;78.19
56142;BME280;42018;48.588;10.836;2022-11-06T06:16:52;97111.56;;;4.12;78.57
56142;BME280;42018;48.588;10.836;2022-11-06T06:19:37;97106.97;;;4.50;77.62
56142;BME280;42018;48.588;10.836;2022-11-06T06:22:22;97111.13;;;4.76;76.13
56142;BME280;42018;48.588;10.836;2022-11-06T06:25:08;97103.63;;;4.43;76.79
56142;BME280;42018;48.588;10.836;2022-11-06T06:27:54;97114.53;;;4.40;77.27
56142;BME280;42018;48.588;10.836;2022-11-06T06:30:39;97123.47;;;4.57;74.53
56142;BME280;42018;48.588;10.836;2022-11-06T06:33:25;97133.22;;;4.50;75.58
56142;BME280;42018;48.588;10.836;2022-11-06T06:36:10;97145.97;;;4.47;76.54
56142;BME280;42018;48.588;10.836;2022-11-06T06:38:55;97162.78;;;4.39;76.79
56142;BME280;42018;48.588;10.836;2022-11-06T06:41:41;97150.41;;;4.46;77.14
56142;BME280;42018;48.588;10.836;2022-11-06T06:44:26;97152.19;;;4.71;75.30
56142;BME280;42018;48.588;10.836;2022-11-06T06:47:12;97151.25;;;4.84;75.25
56142;BME280;42018;48.588;10.836;2022-11-06T06:50:00;97152.19;;;5.08;75.03
56142;BME280;42018;48.588;10.836;2022-11-06T06:52:46;97165.09;;;4.72;75.16
56142;BME280;42018;48.588;10.836;2022-11-06T06:55:31;97165.50;;;4.51;76.75
56142;BME280;42018;48.588;10.836;2022-11-06T06:58:17;97170.88;;;4.38;77.26
56142;BME280;42018;48.588;10.836;2022-11-06T07:01:04;97178.09;;;4.42;77.78
56142;BME280;42018;48.588;10.836;2022-11-06T07:03:49;97169.44;;;4.42;76.68
56142;BME280;42018;48.588;10.836;2022-11-06T07:06:35;97172.75;;;3.74;79.25
56142;BME280;42018;48.588;10.836;2022-11-06T07:09:21;97177.44;;;3.58;80.11
56142;BME280;42018;48.588;10.836;2022-11-06T07:12:07;97188.25;;;3.75;80.42
56142;BME280;42018;48.588;10.836;2022-11-06T07:14:53;97201.94;;;4.09;80.12
56142;BME280;42018;48.588;10.836;2022-11-06T07:17:38;97194.06;;;4.09;78.69
56142;BME280;42018;48.588;10.836;2022-11-06T07:20:24;97191.78;;;4.19;79.20
56142;BME280;42018;48.588;10.836;2022-11-06T07:23:09;97188.66;;;4.36;79.32
56142;BME280;42018;48.588;10.836;2022-11-06T07:25:55;97175.06;;;4.45;77.66
56142;BME280;42018;48.588;10.836;2022-11-06T07:28:40;97168.41;;;4.43;78.55
56142;BME280;42018;48.588;10.836;2022-11-06T07:31:25;97154.38;;;4.55;78.10
56142;BME280;42018;48.588;10.836;2022-11-06T07:34:11;97151.09;;;4.60;77.73
56142;BME280;42018;48.588;10.836;2022-11-06T07:36:56;97146.53;;;4.74;77.62
56142;BME280;42018;48.588;10.836;2022-11-06T07:39:41;97151.03;;;5.03;75.88
56142;BME280;42018;48.588;10.836;2022-11-06T07:42:27;97140.94;;;5.19;74.70
56142;BME280;42018;48.588;10.836;2022-11-06T07:45:13;97147.84;;;5.20;74.97
56142;BME280;42018;48.588;10.836;2022-11-06T07:47:58;97160.94;;;4.83;76.90
56142;BME280;42018;48.588;10.836;2022-11-06T07:50:44;97164.53;;;4.70;76.99
56142;BME280;42018;48.588;10.836;2022-11-06T07:53:29;97170.03;;;4.62;77.88
56142;BME280;42018;48.588;10.836;2022-11-06T07:56:15;97178.81;;;4.74;77.37
56142;BME280;42018;48.588;10.836;2022-11-06T07:59:00;97179.13;;;5.03;75.16
56142;BME280;42018;48.588;10.836;2022-11-06T08:01:45;97171.06;;;4.61;77.15
56142;BME280;42018;48.588;10.836;2022-11-06T08:04:31;97163.22;;;5.16;75.20
56142;BME280;42018;48.588;10.836;2022-11-06T08:07:16;97159.25;;;5.25;74.74
56142;BME280;42018;48.588;10.836;2022-11-06T08:10:02;97145.44;;;5.00;75.20
56142;BME280;42018;48.588;10.836;2022-11-06T08:12:47;97154.59;;;4.91;76.84
56142;BME280;42018;48.588;10.836;2022-11-06T08:15:33;97155.69;;;4.83;77.63
56142;BME280;42018;48.588;10.836;2022-11-06T08:18:18;97151.19;;;5.27;75.77
56142;BME280;42018;48.588;10.836;2022-11-06T08:21:04;97136.56;;;5.31;74.98
56142;BME280;42018;48.588;10.836;2022-11-06T08:23:50;97133.34;;;5.29;75.94
56142;BME280;42018;48.588;10.836;2022-11-06T08:26:35;97122.31;;;5.39;75.11
56142;BME280;42018;48.588;10.836;2022-11-06T08:29:20;97118.66;;;5.10;76.26
56142;BME280;42018;48.588;10.836;2022-11-06T08:32:06;97107.34;;;4.72;78.82
56142;BME280;42018;48.588;10.836;2022-11-06T08:34:51;97101.59;;;4.82;78.79
56142;BME280;42018;48.588;10.836;2022-11-06T08:37:36;97097.16;;;4.83;79.00
56142;BME280;42018;48.588;10.836;2022-11-06T08:40:22;97086.44;;;4.66;79.51
56142;BME280;42018;48.588;10.836;2022-11-06T08:43:09;97074.97;;;4.97;77.93
56142;BME280;42018;48.588;10.836;2022-11-06T08:45:54;97060.41;;;4.83;78.25
56142;BME280;42018;48.588;10.836;2022-11-06T08:48:39;97061.75;;;4.73;79.68
56142;BME280;42018;48.588;10.836;2022-11-06T08:51:25;97052.31;;;5.14;77.96
56142;BME280;42018;48.588;10.836;2022-11-06T08:54:10;97053.41;;;4.76;79.33
56142;BME280;42018;48.588;10.836;2022-11-06T08:56:56;97046.84;;;4.86;79.44
56142;BME280;42018;48.588;10.836;2022-11-06T08:59:42;97056.75;;;4.65;80.71
56142;BME280;42018;48.588;10.836;2022-11-06T09:02:27;97038.03;;;4.62;81.13
56142;BME280;42018;48.588;10.836;2022-11-06T09:05:13;97042.13;;;4.57;82.44
56142;BME280;42018;48.588;10.836;2022-11-06T09:07:58;97033.53;;;4.99;80.48
56142;BME280;42018;48.588;10.836;2022-11-06T09:10:44;97029.66;;;4.53;81.81
56142;BME280;42018;48.588;10.836;2022-11-06T09:13:29;97024.19;;;4.36;83.89
56142;BME280;42018;48.588;10.836;2022-11-06T09:16:15;97017.16;;;4.85;82.77
56142;BME280;42018;48.588;10.836;2022-11-06T09:19:00;97020.31;;;4.75;83.29
56142;BME280;42018;48.588;10.836;2022-11-06T09:21:45;97016.97;;;4.50;84.67
56142;BME280;42018;48.588;10.836;2022-11-06T09:24:31;97017.09;;;4.92;82.77
56142;BME280;42018;48.588;10.836;2022-11-06T09:27:16;97011.34;;;4.65;84.55
56142;BME280;42018;48.588;10.836;2022-11-06T09:30:01;96999.00;;;4.84;83.27
56142;BME280;42018;48.588;10.836;2022-11-06T09:32:56;96999.78;;;5.02;83.42
56142;BME280;42018;48.588;10.836;2022-11-06T09:35:42;96987.25;;;5.16;83.61
56142;BME280;42018;48.588;10.836;2022-11-06T09:38:27;96977.75;;;5.15;84.02
56142;BME280;42018;48.588;10.836;2022-11-06T09:41:49;96978.59;;;5.27;83.35
56142;BME280;42018;48.588;10.836;2022-11-06T09:47:28;96964.00;;;5.43;84.01
56142;BME280;42018;48.588;10.836;2022-11-06T09:50:19;96965.97;;;5.48;84.01
56142;BME280;42018;48.588;10.836;2022-11-06T09:53:14;96959.31;;;5.69;84.19
56142;BME280;42018;48.588;10.836;2022-11-06T09:56:02;96957.25;;;5.47;85.50
56142;BME280;42018;48.588;10.836;2022-11-06T09:58:50;96960.66;;;5.36;87.05
56142;BME280;42018;48.588;10.836;2022-11-06T10:01:42;96962.53;;;5.59;86.02
56142;BME280;42018;48.588;10.836;2022-11-06T10:04:50;96952.72;;;5.66;85.42
56142;BME280;42018;48.588;10.836;2022-11-06T10:07:40;96950.94;;;5.13;88.16
56142;BME280;42018;48.588;10.836;2022-11-06T10:10:31;96940.72;;;5.59;86.21
56142;BME280;42018;48.588;10.836;2022-11-06T10:14:00;96935.34;;;5.77;86.23
56142;BME280;42018;48.588;10.836;2022-11-06T10:17:15;96914.66;;;5.92;86.07
56142;BME280;42018;48.588;10.836;2022-11-06T10:20:10;96909.16;;;5.94;85.14
56142;BME280;42018;48.588;10.836;2022-11-06T10:23:02;96901.94;;;6.13;84.08
56142;BME280;42018;48.588;10.836;2022-11-06T10:25:58;96888.00;;;6.00;83.96
56142;BME280;42018;48.588;10.836;2022-11-06T10:38:17;96892.16;;;5.73;87.27
56142;BME280;42018;48.588;10.836;2022-11-06T10:41:14;96877.34;;;6.07;86.09
56142;BME280;42018;48.588;10.836;2022-11-06T10:44:05;96878.88;;;6.32;85.12
56142;BME280;42018;48.588;10.836;2022-11-06T10:46:55;96867.28;;;6.44;84.21
56142;BME280;42018;48.588;10.836;2022-11-06T10:50:00;96877.38;;;6.64;83.74
56142;BME280;42018;48.588;10.836;2022-11-06T10:58:44;96861.13;;;6.84;82.35
56142;BME280;42018;48.588;10.836;2022-11-06T11:01:29;96867.34;;;6.78;81.68
56142;BME280;42018;48.588;10.836;2022-11-06T11:04:15;96867.91;;;6.80;82.54
56142;BME280;42018;48.588;10.836;2022-11-06T11:07:11;96860.91;;;7.03;82.15
56142;BME280;42018;48.588;10.836;2022-11-06T11:13:18;96846.13;;;7.02;80.25
56142;BME280;42018;48.588;10.836;2022-11-06T11:16:12;96838.56;;;7.05;81.56
56142;BME280;42018;48.588;10.836;2022-11-06T11:19:26;96837.66;;;7.16;81.72
56142;BME280;42018;48.588;10.836;2022-11-06T11:22:19;96835.09;;;7.38;80.07
56142;BME280;42018;48.588;10.836;2022-11-06T11:25:23;96827.78;;;7.62;79.23
56142;BME280;42018;48.588;10.836;2022-11-06T11:28:20;96820.75;;;7.12;80.71
56142;BME280;42018;48.588;10.836;2022-11-06T11:31:10;96824.41;;;7.11;80.60
56142;BME280;42018;48.588;10.836;2022-11-06T11:33:59;96829.03;;;7.21;80.36
56142;BME280;42018;48.588;10.836;2022-11-06T11:37:01;96827.63;;;7.52;79.12
56142;BME280;42018;48.588;10.836;2022-11-06T11:39:47;96837.13;;;7.53;79.04
56142;BME280;42018;48.588;10.836;2022-11-06T11:42:32;96847.91;;;7.90;77.77
56142;BME280;42018;48.588;10.836;2022-11-06T11:45:19;96851.34;;;8.13;76.58
56142;BME280;42018;48.588;10.836;2022-11-06T11:48:12;96843.59;;;8.28;76.69
56142;BME280;42018;48.588;10.836;2022-11-06T11:51:28;96841.88;;;8.39;75.46
56142;BME280;42018;48.588;10.836;2022-11-06T11:54:20;96832.78;;;8.52;74.78
56142;BME280;42018;48.588;10.836;2022-11-06T11:57:16;96818.38;;;8.37;75.60
56142;BME280;42018;48.588;10.836;2022-11-06T12:00:04;96815.88;;;8.53;75.44
56142;BME280;42018;48.588;10.836;2022-11-06T12:03:00;96811.25;;;8.65;74.77
56142;BME280;42018;48.588;10.836;2022-11-06T12:05:48;96807.06;;;8.42;74.67
56142;BME280;42018;48.588;10.836;2022-11-06T12:08:34;96813.81;;;8.33;74.70
56142;BME280;42018;48.588;10.836;2022-11-06T12:11:25;96795.31;;;8.55;74.20
56142;BME280;42018;48.588;10.836;2022-11-06T12:14:32;96794.31;;;8.61;74.16
56142;BME280;42018;48.588;10.836;2022-11-06T12:17:20;96780.84;;;8.62;74.31
56142;BME280;42018;48.588;10.836;2022-11-06T12:20:14;96782.34;;;8.53;74.32
56142;BME280;42018;48.588;10.836;2022-11-06T12:23:02;96782.91;;;8.55;75.52
56142;BME280;42018;48.588;10.836;2022-11-06T12:35:44;96752.28;;;8.59;74.72
56142;BME280;42018;48.588;10.836;2022-11-06T12:38:47;96740.38;;;8.57;75.48
56142;BME280;42018;48.588;10.836;2022-11-06T12:41:38;96734.00;;;8.85;74.82
56142;BME280;42018;48.588;10.836;2022-11-06T12:44:25;96732.78;;;9.03;74.61
56142;BME280;42018;48.588;10.836;2022-11-06T12:50:50;96715.84;;;8.99;73.55
56142;BME280;42018;48.588;10.836;2022-11-06T12:57:14;96692.22;;;8.77;74.43
56142;BME280;42018;48.588;10.836;2022-11-06T13:12:57;96642.31;;;8.85;73.96
56142;BME280;42018;48.588;10.836;2022-11-06T13:18:52;96631.63;;;9.18;73.40
56142;BME280;42018;48.588;10.836;2022-11-06T13:22:20;96631.16;;;9.26;73.17
56142;BME280;42018;48.588;10.836;2022-11-06T13:25:25;96614.22;;;9.32;73.00
56142;BME280;42018;48.588;10.836;2022-11-06T13:28:29;96606.53;;;9.20;73.04
56142;BME280;42018;48.588;10.836;2022-11-06T13:31:18;96609.66;;;9.02;74.80
56142;BME280;42018;48.588;10.836;2022-11-06T13:34:05;96608.84;;;9.01;75.00
56142;BME280;42018;48.588;10.836;2022-11-06T13:36:53;96595.09;;;8.99;74.78
56142;BME280;42018;48.588;10.836;2022-11-06T13:39:48;96604.94;;;9.19;74.73
56142;BME280;42018;48.588;10.836;2022-11-06T13:42:40;96605.28;;;9.43;73.79
56142;BME280;42018;48.588;10.836;2022-11-06T13:45:42;96612.72;;;9.51;73.68
56142;BME280;42018;48.588;10.836;2022-11-06T13:55:05;96603.38;;;9.18;75.06
56142;BME280;42018;48.588;10.836;2022-11-06T14:01:23;96596.72;;;9.10;74.34
56142;BME280;42018;48.588;10.836;2022-11-06T14:07:14;96585.63;;;9.14;75.70
56142;BME280;42018;48.588;10.836;2022-11-06T14:10:01;96567.19;;;9.29;75.04
56142;BME280;42018;48.588;10.836;2022-11-06T14:12:48;96560.84;;;9.30;75.24
56142;BME280;42018;48.588;10.836;2022-11-06T14:15:36;96558.75;;;9.37;74.72
56142;BME280;42018;48.588;10.836;2022-11-06T14:18:23;96567.19;;;9.34;75.02
56142;BME280;42018;48.588;10.836;2022-11-06T14:36:35;96574.28;;;9.23;75.04
56142;BME280;42018;48.588;10.836;2022-11-06T14:42:46;96579.31;;;9.15;75.81
56142;BME280;42018;48.588;10.836;2022-11-06T14:45:31;96570.06;;;9.22;75.60
56142;BME280;42018;48.588;10.836;2022-11-06T14:48:29;96566.59;;;9.11;75.26
56142;BME280;42018;48.588;10.836;2022-11-06T14:51:15;96561.56;;;9.10;75.74
56142;BME280;42018;48.588;10.836;2022-11-06T14:54:20;96562.88;;;9.02;76.00
56142;BME280;42018;48.588;10.836;2022-11-06T14:57:14;96567.09;;;8.98;76.52
56142;BME280;42018;48.588;10.836;2022-11-06T15:00:00;96562.34;;;9.05;76.33
56142;BME280;42018;48.588;10.836;2022-11-06T15:02:46;96569.47;;;9.00;76.53
56142;BME280;42018;48.588;10.836;2022-11-06T15:05:32;96578.22;;;9.10;75.96
56142;BME280;42018;48.588;10.836;2022-11-06T15:08:51;96572.63;;;8.97;75.64
56142;BME280;42018;48.588;10.836;2022-11-06T15:17:15;96581.09;;;8.99;76.58
56142;BME280;42018;48.588;10.836;2022-11-06T15:20:07;96589.28;;;9.02;76.46
56142;BME280;42018;48.588;10.836;2022-11-06T15:23:02;96575.56;;;9.10;75.31
56142;BME280;42018;48.588;10.836;2022-11-06T15:25:54;96583.50;;;9.05;75.28
56142;BME280;42018;48.588;10.836;2022-11-06T15:28:46;96580.84;;;9.05;75.66
56142;BME280;42018;48.588;10.836;2022-11-06T15:31:33;96581.53;;;8.80;76.19
56142;BME280;42018;48.588;10.836;2022-11-06T15:34:42;96576.28;;;8.85;75.46
56142;BME280;42018;48.588;10.836;2022-11-06T15:37:31;96579.22;;;8.99;76.00
56142;BME280;42018;48.588;10.836;2022-11-06T15:40:34;96573.41;;;8.92;75.93
56142;BME280;42018;48.588;10.836;2022-11-06T15:46:22;96574.91;;;8.78;75.49
56142;BME280;42018;48.588;10.836;2022-11-06T15:49:18;96569.69;;;8.83;75.80
56142;BME280;42018;48.588;10.836;2022-11-06T15:52:05;96568.03;;;8.72;76.27
56142;BME280;42018;48.588;10.836;2022-11-06T15:54:52;96563.56;;;8.72;76.14
56142;BME280;42018;48.588;10.836;2022-11-06T15:57:37;96561.16;;;8.71;76.36
56142;BME280;42018;48.588;10.836;2022-11-06T16:00:23;96556.13;;;8.69;76.26
56142;BME280;42018;48.588;10.836;2022-11-06T16:03:17;96547.44;;;8.69;75.88
56142;BME280;42018;48.588;10.836;2022-11-06T16:06:03;96547.66;;;8.67;76.12
56142;BME280;42018;48.588;10.836;2022-11-06T16:08:49;96555.63;;;8.72;75.75
56142;BME280;42018;48.588;10.836;2022-11-06T16:11:35;96556.88;;;8.59;76.19
56142;BME280;42018;48.588;10.836;2022-11-06T16:14:21;96562.88;;;8.50;76.73
56142;BME280;42018;48.588;10.836;2022-11-06T16:17:19;96556.31;;;8.47;76.47
56142;BME280;42018;48.588;10.836;2022-11-06T16:20:11;96558.91;;;8.42;76.74
56142;BME280;42018;48.588;10.836;2022-11-06T16:23:02;96565.22;;;8.41;76.72
56142;BME280;42018;48.588;10.836;2022-11-06T16:25:48;96569.63;;;8.30;76.99
56142;BME280;42018;48.588;10.836;2022-11-06T16:28:33;96577.25;;;8.27;77.20
56142;BME280;42018;48.588;10.836;2022-11-06T16:31:27;96569.97;;;8.39;75.91
56142;BME280;42018;48.588;10.836;2022-11-06T16:34:32;96565.69;;;8.33;75.51
56142;BME280;42018;48.588;10.836;2022-11-06T16:40:50;96559.03;;;8.25;74.95
56142;BME280;42018;48.588;10.836;2022-11-06T16:43:36;96563.19;;;8.16;76.59
56142;BME280;42018;48.588;10.836;2022-11-06T16:46:22;96565.41;;;8.29;76.00
56142;BME280;42018;48.588;10.836;2022-11-06T16:49:31;96562.41;;;8.15;75.75
56142;BME280;42018;48.588;10.836;2022-11-06T16:52:37;96567.84;;;8.04;75.52
56142;BME280;42018;48.588;10.836;2022-11-06T16:55:23;96562.34;;;8.10;76.16
56142;BME280;42018;48.588;10.836;2022-11-06T16:58:15;96553.91;;;8.08;75.66
56142;BME280;42018;48.588;10.836;2022-11-06T17:01:03;96570.03;;;8.12;75.73
56142;BME280;42018;48.588;10.836;2022-11-06T17:03:58;96568.09;;;7.97;75.71
56142;BME280;42018;48.588;10.836;2022-11-06T17:06:45;96571.81;;;8.01;75.89
56142;BME280;42018;48.588;10.836;2022-11-06T17:09:32;96569.66;;;7.98;75.94
56142;BME280;42018;48.588;10.836;2022-11-06T17:12:18;96571.25;;;7.99;76.04
56142;BME280;42018;48.588;10.836;2022-11-06T17:15:04;96578.78;;;7.85;75.97